Wednesday, July 23, 2014
20:04 UTC
  |  Log In   |  Register Free
Airport Search:

Okmulgee Regional Airport
(KOKM)

Okmulgee Regional Airport Diagram
No Airport Diagram Available

FAA data valid effective May 29, 2014 until July 24, 2014 (unless otherwise noted).

 
 
 
 
 
 
 
 
 
 
 
 
 
 

Current Aviation Weather for Okmulgee Regional Airport (KOKM)

The most recent METAR observation for KOKM was updated at: 1935 UTC
METAR Summary (Translated METAR)
KOKM
231935Z AUTO 01008KT 10SM VCTS CLR 29/26 A3009 RMK AO2 LTG DSNT W THRU E T02940260
KRVS
(22.4 nm NW from KOKM)
231853Z 35006KT 10SM CLR 31/24 A3008 RMK AO2 SLP187 T03110244
TAF Summary (Translated TAF)
KRVS
(22.4 nm NW from KOKM)
231720Z 2318/2418 02007KT P6SM VCTS SCT050CB SCT200 TEMPO 2319/2321 VRB20G30KT 4SM TSRA BKN020CB FM240000 VRB05KT P6SM FEW250 FM241500 10007KT P6SM FEW250
  Airport Weather Conditions for KOKM

 Current Weather at OKM
88° F
Fair
Southwest winds at 4.6 mph
OKM NOAA Radar

Pressure: 30.06 in
Humidity: 69%
Wind: Southwest at 4.6 MPH (4 KT)
Dew Point: 77.0°F
Visibility: 10.00 mi


Airport Weather Forecast for KOKM

Translated METAR and TAF for KOKM
Translated METAR for KOKM (1957 UTC 23 July 2014)
found at http://aviationweather.gov/adds/metars/
 
METAR text: KOKM 231935Z AUTO 01008KT 10SM VCTS CLR 29/26 A3009 RMK AO2 LTG DSNT W THRU E T02940260
Conditions at: KOKM (OKMULGEE , OK, US) observed 1935 UTC 23 July 2014
Temperature: 29.4°C (85°F)
Dewpoint: 26.0°C (79°F) [RH = 82%]
Pressure (altimeter): 30.09 inches Hg (1019.0 mb)
Winds: from the N (10 degrees) at 9 MPH (8 knots; 4.2 m/s)
Visibility: 10 or more miles (16+ km)
Ceiling: at least 12,000 feet AGL
Clouds: sky clear below 12,000 feet AGL
Weather: VCTS  (thunderstorm in vicinity)
Translated TAF for KOKM

There is no translated TAF available for this airport

Find All Airport Services Find A Hotel Find A Rental Car Find A Golf Course Find A Restaurant $100 Hamburger



FBO's on the Field
FBO Company Facility Photos Services Transportation Aviation Fuel Prices: Prices include tax
Catering Weather Repair Courtesy Rental Type 100LL JetA JetA+ MOGAS 8087
 
Okmulgee Regional Airport

This FBO has not yet been rated
FS:Phillips66
Last Updated: Jul-07
Login to update fuel prices
SS:
Contact Okmulgee Regional AirportMore FBO Information
 
Add another FBO Facility Photos Catering Weather Repair Courtesy Rental Type 100LL JetA JetA+ MOGAS 8087
Services Transportation Aviation Fuel Prices: Prices include tax


GlobalAir.com Airport Resource Center model-print
model-print
model-print
model-print